createdAt,value
2022-09-06T00:00:44.347Z,58.90
2022-09-06T00:03:11.941Z,58.90
2022-09-06T00:05:39.590Z,59.00
2022-09-06T00:08:07.269Z,59.30
2022-09-06T00:10:34.883Z,59.50
2022-09-06T00:13:07.524Z,59.50
2022-09-06T00:15:38.751Z,60.20
2022-09-06T00:18:07.743Z,59.80
2022-09-06T00:20:38.214Z,60.10
2022-09-06T00:23:05.984Z,60.20
2022-09-06T00:25:34.248Z,60.20
2022-09-06T00:28:04.345Z,60.40
2022-09-06T00:30:33.096Z,61.50
2022-09-06T00:33:00.815Z,60.80
2022-09-06T00:35:29.223Z,61.10
2022-09-06T00:37:59.123Z,61.50
2022-09-06T00:40:30.054Z,61.50
2022-09-06T00:42:58.340Z,61.40
2022-09-06T00:45:27.428Z,61.20
2022-09-06T00:47:55.411Z,62.00
2022-09-06T00:50:23.134Z,61.40
2022-09-06T00:52:52.607Z,61.70
2022-09-06T00:55:21.260Z,62.10
2022-09-06T00:57:51.423Z,62.10
2022-09-06T01:00:19.803Z,61.90
2022-09-06T01:02:48.818Z,61.80
2022-09-06T01:05:17.428Z,61.60
2022-09-06T01:08:16.607Z,61.60
2022-09-06T01:11:01.807Z,61.70
2022-09-06T01:13:49.288Z,61.70
2022-09-06T01:16:25.523Z,61.70
2022-09-06T01:19:30.375Z,61.50
2022-09-06T01:22:00.590Z,61.70
2022-09-06T01:24:57.380Z,61.60
2022-09-06T01:27:59.876Z,61.80
2022-09-06T01:30:27.598Z,62.20
2022-09-06T01:33:06.941Z,61.70
2022-09-06T01:35:41.651Z,62.10
2022-09-06T01:38:09.433Z,62.50
2022-09-06T01:40:36.855Z,62.50
2022-09-06T01:43:10.899Z,62.40
2022-09-06T01:46:03.804Z,62.90
2022-09-06T01:48:52.734Z,63.20
2022-09-06T01:52:02.651Z,62.90
2022-09-06T01:54:57.671Z,63.40
2022-09-06T01:57:34.471Z,63.00
2022-09-06T02:00:10.764Z,63.40
2022-09-06T02:03:14.793Z,64.30
2022-09-06T02:05:59.037Z,63.70
2022-09-06T02:08:33.152Z,63.50
2022-09-06T02:11:05.848Z,63.60
2022-09-06T02:14:01.419Z,63.80
2022-09-06T02:16:32.774Z,63.90
2022-09-06T02:19:08.127Z,63.80
2022-09-06T02:21:40.191Z,63.80
2022-09-06T02:24:11.906Z,63.80
2022-09-06T02:26:42.651Z,64.00
2022-09-06T02:29:10.521Z,64.00
2022-09-06T02:31:44.544Z,64.00
2022-09-06T02:34:15.530Z,64.40
2022-09-06T02:36:43.361Z,64.30
2022-09-06T02:39:11.006Z,64.30
2022-09-06T02:41:40.866Z,64.40
2022-09-06T02:44:08.592Z,65.10
2022-09-06T02:46:36.151Z,64.60
2022-09-06T02:49:03.779Z,64.80
2022-09-06T02:51:35.624Z,64.80
2022-09-06T02:54:03.164Z,65.00
2022-09-06T02:56:30.632Z,64.90
2022-09-06T02:58:58.496Z,65.20
2022-09-06T03:01:26.400Z,65.20
2022-09-06T03:03:53.911Z,65.40
2022-09-06T03:06:21.287Z,65.70
2022-09-06T03:08:48.657Z,65.50
2022-09-06T03:11:16.046Z,65.70
2022-09-06T03:13:43.359Z,65.60
2022-09-06T03:16:11.057Z,65.80
2022-09-06T03:18:38.680Z,66.00
2022-09-06T03:21:06.306Z,66.40
2022-09-06T03:23:34.379Z,66.40
2022-09-06T03:26:01.804Z,66.50
2022-09-06T03:28:29.375Z,66.70
2022-09-06T03:30:57.860Z,67.60
2022-09-06T03:33:25.449Z,66.80
2022-09-06T03:35:55.354Z,66.90
2022-09-06T03:38:23.719Z,67.00
2022-09-06T03:40:52.830Z,66.80
2022-09-06T03:43:23.073Z,66.70
2022-09-06T03:45:52.847Z,66.90
2022-09-06T03:48:22.721Z,67.70
2022-09-06T03:50:54.128Z,67.10
2022-09-06T03:53:22.870Z,67.10
2022-09-06T03:55:53.139Z,67.00
2022-09-06T03:58:22.452Z,67.10
2022-09-06T04:00:50.299Z,67.10
2022-09-06T04:03:19.424Z,67.50
2022-09-06T04:05:46.919Z,67.40
2022-09-06T04:08:14.926Z,67.60
2022-09-06T04:10:42.311Z,67.70
2022-09-06T04:13:09.715Z,67.70
2022-09-06T04:15:37.239Z,67.70
2022-09-06T04:18:09.028Z,67.70
2022-09-06T04:20:36.759Z,67.80
2022-09-06T04:23:04.455Z,68.20
2022-09-06T04:25:32.312Z,68.10
2022-09-06T04:27:59.764Z,68.30
2022-09-06T04:30:27.486Z,68.30
2022-09-06T04:32:54.939Z,68.30
2022-09-06T04:35:22.320Z,68.20
2022-09-06T04:37:49.768Z,68.00
2022-09-06T04:40:17.332Z,68.00
2022-09-06T04:42:44.957Z,67.80
2022-09-06T04:45:12.683Z,67.90
2022-09-06T04:47:40.635Z,68.10
2022-09-06T04:50:08.410Z,68.20
2022-09-06T04:52:36.068Z,68.50
2022-09-06T04:55:04.487Z,68.60
2022-09-06T04:57:33.279Z,68.70
2022-09-06T05:00:00.736Z,68.70
2022-09-06T05:02:28.493Z,68.80
2022-09-06T05:04:57.153Z,68.90
2022-09-06T05:07:25.657Z,68.90
2022-09-06T05:09:53.496Z,69.00
2022-09-06T05:12:21.883Z,69.40
2022-09-06T05:14:49.563Z,69.40
2022-09-06T05:17:17.115Z,69.10
2022-09-06T05:19:44.584Z,68.80
2022-09-06T05:22:12.439Z,68.50
2022-09-06T05:24:40.034Z,68.10
2022-09-06T05:27:07.712Z,68.00
2022-09-06T05:29:35.357Z,67.70
2022-09-06T05:32:03.063Z,67.50
2022-09-06T05:34:30.596Z,67.40
2022-09-06T05:37:00.846Z,67.40
2022-09-06T05:39:28.330Z,67.40
2022-09-06T05:41:55.877Z,67.20
2022-09-06T05:44:23.421Z,66.90
2022-09-06T05:46:50.951Z,66.60
2022-09-06T05:49:18.551Z,66.50
2022-09-06T05:51:51.620Z,66.00
2022-09-06T05:54:19.131Z,65.30
2022-09-06T05:56:46.504Z,65.30
2022-09-06T05:59:14.052Z,64.60
2022-09-06T06:01:50.792Z,64.00
2022-09-06T06:04:19.149Z,63.30
2022-09-06T06:06:47.197Z,63.00
2022-09-06T06:09:15.657Z,62.90
2022-09-06T06:11:43.251Z,62.90
2022-09-06T06:14:10.653Z,62.80
2022-09-06T06:16:38.395Z,63.20
2022-09-06T06:19:05.689Z,63.10
2022-09-06T06:21:34.233Z,62.90
2022-09-06T06:24:03.829Z,61.70
2022-09-06T06:26:34.102Z,61.20
2022-09-06T06:29:02.381Z,60.00
2022-09-06T06:31:31.335Z,59.20
2022-09-06T06:33:59.622Z,58.30
2022-09-06T06:36:30.694Z,58.20
2022-09-06T06:38:58.827Z,57.70
2022-09-06T06:41:28.904Z,57.70
2022-09-06T06:43:59.131Z,57.20
2022-09-06T06:46:29.417Z,56.90
2022-09-06T06:48:57.175Z,55.80
2022-09-06T06:51:28.320Z,54.60
2022-09-06T06:53:59.885Z,53.90
2022-09-06T06:56:30.732Z,53.80
2022-09-06T06:59:00.769Z,53.10
2022-09-06T07:01:30.866Z,52.60
2022-09-06T07:03:58.560Z,52.10
2022-09-06T07:09:18.115Z,52.00
2022-09-06T07:11:48.564Z,52.30
2022-09-06T07:14:18.581Z,52.40
2022-09-06T07:16:47.096Z,51.30
2022-09-06T07:22:04.991Z,49.40
2022-09-06T07:24:34.195Z,48.90
2022-09-06T07:29:50.059Z,48.60
2022-09-06T07:32:17.690Z,48.30
2022-09-06T07:34:45.348Z,48.00
2022-09-06T07:37:12.973Z,47.90
2022-09-06T07:39:41.364Z,47.30
2022-09-06T07:42:09.597Z,47.60
2022-09-06T07:44:37.507Z,47.70
2022-09-06T07:55:30.657Z,46.20
2022-09-06T07:57:58.582Z,46.50
2022-09-06T08:00:26.619Z,47.00
2022-09-06T08:02:54.868Z,47.50
2022-09-06T08:10:57.819Z,49.70
2022-09-06T08:13:25.824Z,50.10
2022-09-06T08:16:08.286Z,50.10
2022-09-06T08:18:37.135Z,50.30
2022-09-06T08:21:15.871Z,49.80
2022-09-06T08:23:49.126Z,49.40
2022-09-06T08:26:18.124Z,49.10
2022-09-06T08:28:45.608Z,49.20
2022-09-06T08:31:15.601Z,49.10
2022-09-06T08:33:44.587Z,49.00
2022-09-06T08:36:13.727Z,49.10
2022-09-06T08:38:41.515Z,49.50
2022-09-06T08:41:17.956Z,49.90
2022-09-06T08:47:06.145Z,51.40
2022-09-06T08:49:44.875Z,50.70
2022-09-06T08:52:25.723Z,50.50
2022-09-06T08:55:19.444Z,50.80
2022-09-06T08:58:02.904Z,50.80
2022-09-06T09:00:31.701Z,50.50
2022-09-06T09:03:17.213Z,50.60
2022-09-06T09:05:49.889Z,50.90
2022-09-06T09:09:04.172Z,50.90
2022-09-06T09:11:33.621Z,51.10
2022-09-06T09:14:06.063Z,50.90
2022-09-06T09:16:34.350Z,51.20
2022-09-06T09:19:04.673Z,51.40
2022-09-06T09:21:36.925Z,51.50
2022-09-06T09:24:10.728Z,52.40
2022-09-06T09:26:49.461Z,51.60
2022-09-06T09:29:17.425Z,52.10
2022-09-06T09:31:53.596Z,52.10
2022-09-06T09:34:40.434Z,52.40
2022-09-06T09:40:30.127Z,52.60
2022-09-06T09:43:20.795Z,52.70
2022-09-06T09:46:09.860Z,53.10
2022-09-06T09:48:38.496Z,53.50
2022-09-06T09:51:27.142Z,53.50
2022-09-06T09:53:57.871Z,53.50
2022-09-06T09:56:50.320Z,53.40
2022-09-06T09:59:19.379Z,53.50
2022-09-06T10:01:47.207Z,53.40
2022-09-06T10:07:15.146Z,53.40
2022-09-06T10:09:46.319Z,53.40
2022-09-06T10:12:18.128Z,53.30
2022-09-06T10:14:48.722Z,53.40
2022-09-06T10:17:51.229Z,53.30
2022-09-06T10:20:18.940Z,53.10
2022-09-06T10:22:49.018Z,53.30
2022-09-06T10:25:45.099Z,52.50
2022-09-06T10:28:42.580Z,52.70
2022-09-06T10:31:19.430Z,52.30
2022-09-06T10:33:58.976Z,51.60
2022-09-06T10:36:40.344Z,51.40
2022-09-06T10:39:41.544Z,51.00
2022-09-06T10:42:34.931Z,50.80
2022-09-06T10:45:20.892Z,50.00
2022-09-06T10:48:02.521Z,49.90
2022-09-06T10:50:56.516Z,50.00
2022-09-06T10:53:30.643Z,50.00
2022-09-06T10:56:20.949Z,49.80
2022-09-06T11:02:32.745Z,49.70
2022-09-06T11:11:23.450Z,49.00
2022-09-06T11:13:50.974Z,48.50
2022-09-06T11:16:28.364Z,48.20
2022-09-06T11:19:07.741Z,47.50
2022-09-06T11:22:09.789Z,47.60
2022-09-06T11:25:28.840Z,47.50
2022-09-06T11:28:01.236Z,47.40
2022-09-06T11:30:30.147Z,46.90
2022-09-06T11:33:35.406Z,46.70
2022-09-06T11:36:37.952Z,46.70
2022-09-06T11:39:08.926Z,46.50
2022-09-06T11:41:40.099Z,45.80
2022-09-06T11:44:10.982Z,45.60
2022-09-06T11:46:41.277Z,45.20
2022-09-06T11:49:27.316Z,45.40
2022-09-06T11:51:55.183Z,45.50
2022-09-06T11:54:40.967Z,45.60
2022-09-06T11:57:12.549Z,45.80
2022-09-06T11:59:47.721Z,45.40
2022-09-06T12:02:36.318Z,45.40
2022-09-06T12:05:07.501Z,45.30
2022-09-06T12:07:59.337Z,45.10
2022-09-06T12:10:31.005Z,44.90
2022-09-06T12:12:58.968Z,45.20
2022-09-06T12:15:32.890Z,45.40
2022-09-06T12:18:00.676Z,45.30
2022-09-06T12:20:51.184Z,45.20
2022-09-06T12:23:36.908Z,45.60
2022-09-06T12:26:42.597Z,45.30
2022-09-06T12:29:11.351Z,45.30
2022-09-06T12:31:42.335Z,45.20
2022-09-06T12:34:22.848Z,44.20
2022-09-06T12:37:07.247Z,44.30
2022-09-06T12:39:34.894Z,43.00
2022-09-06T12:42:03.981Z,42.90
2022-09-06T12:44:57.880Z,43.00
2022-09-06T12:47:29.056Z,43.20
2022-09-06T12:50:17.857Z,43.00
2022-09-06T12:52:46.868Z,43.10
2022-09-06T12:55:27.605Z,42.60
2022-09-06T12:58:00.737Z,42.00
2022-09-06T13:00:37.521Z,41.30
2022-09-06T13:03:16.610Z,42.00
2022-09-06T13:05:45.712Z,40.40
2022-09-06T13:08:17.473Z,40.10
2022-09-06T13:10:46.527Z,40.20
2022-09-06T13:13:22.235Z,40.70
2022-09-06T13:15:49.990Z,41.20
2022-09-06T13:18:22.693Z,40.40
2022-09-06T13:21:03.968Z,40.10
2022-09-06T13:23:42.064Z,40.50
2022-09-06T13:26:10.159Z,39.10
2022-09-06T13:28:38.149Z,39.90
2022-09-06T13:31:09.678Z,40.30
2022-09-06T13:33:37.773Z,39.70
2022-09-06T13:36:11.092Z,39.80
2022-09-06T13:38:38.472Z,40.10
2022-09-06T13:41:25.838Z,39.40
2022-09-06T13:44:16.815Z,38.20
2022-09-06T13:46:44.574Z,38.20
2022-09-06T13:49:12.129Z,38.10
2022-09-06T13:51:41.935Z,38.30
2022-09-06T13:54:11.555Z,38.10
2022-09-06T13:56:39.683Z,38.30
2022-09-06T13:59:10.496Z,38.30
2022-09-06T14:01:43.741Z,37.50
2022-09-06T14:04:19.699Z,38.40
2022-09-06T14:06:48.460Z,39.30
2022-09-06T14:09:16.109Z,39.70
2022-09-06T14:11:47.988Z,40.00
2022-09-06T14:14:17.849Z,39.20
2022-09-06T14:16:47.541Z,39.00
2022-09-06T14:19:15.403Z,38.70
2022-09-06T14:21:43.321Z,38.30
2022-09-06T14:24:10.854Z,38.10
2022-09-06T14:26:39.411Z,37.80
2022-09-06T14:29:08.063Z,37.80
2022-09-06T14:31:35.688Z,38.00
2022-09-06T14:34:04.012Z,38.10
2022-09-06T14:36:33.243Z,38.10
2022-09-06T14:39:01.985Z,38.20
2022-09-06T14:41:29.811Z,38.50
2022-09-06T14:43:58.882Z,38.40
2022-09-06T14:46:28.500Z,38.60
2022-09-06T14:49:01.828Z,38.40
2022-09-06T14:51:30.526Z,38.40
2022-09-06T14:54:02.906Z,38.60
2022-09-06T14:56:30.835Z,38.60
2022-09-06T14:58:59.976Z,38.70
2022-09-06T15:01:37.802Z,38.70
2022-09-06T15:04:08.200Z,38.60
2022-09-06T15:06:39.155Z,38.90
2022-09-06T15:09:07.907Z,38.60
2022-09-06T15:11:41.419Z,38.50
2022-09-06T15:14:20.247Z,38.70
2022-09-06T15:16:54.801Z,38.80
2022-09-06T15:19:24.697Z,38.90
2022-09-06T15:21:52.555Z,38.80
2022-09-06T15:24:20.782Z,38.70
2022-09-06T15:26:48.703Z,38.60
2022-09-06T15:29:16.604Z,39.00
2022-09-06T15:31:50.125Z,38.90
2022-09-06T15:34:20.085Z,38.80
2022-09-06T15:36:48.315Z,38.50
2022-09-06T15:39:16.381Z,38.70
2022-09-06T15:41:44.343Z,39.10
2022-09-06T15:44:14.832Z,38.90
2022-09-06T15:46:47.158Z,39.00
2022-09-06T15:49:28.406Z,39.20
2022-09-06T15:51:57.391Z,39.50
2022-09-06T15:54:45.288Z,39.80
2022-09-06T15:57:14.363Z,39.80
2022-09-06T15:59:42.721Z,39.90
2022-09-06T16:02:11.416Z,40.30
2022-09-06T16:04:39.019Z,40.50
2022-09-06T16:07:07.258Z,40.40
2022-09-06T16:09:35.011Z,40.60
2022-09-06T16:12:02.674Z,40.60
2022-09-06T16:14:30.394Z,40.50
2022-09-06T16:16:57.831Z,40.50
2022-09-06T16:19:26.586Z,40.70
2022-09-06T16:21:54.302Z,40.80
2022-09-06T16:24:23.277Z,40.70
2022-09-06T16:26:51.071Z,41.00
2022-09-06T16:29:19.172Z,41.20
2022-09-06T16:31:47.471Z,41.10
2022-09-06T16:34:15.755Z,41.10
2022-09-06T16:36:43.500Z,41.00
2022-09-06T16:39:11.139Z,41.20
2022-09-06T16:41:44.205Z,41.30
2022-09-06T16:44:17.611Z,41.10
2022-09-06T16:46:49.377Z,41.30
2022-09-06T16:49:19.105Z,41.40
2022-09-06T16:51:48.148Z,41.40
2022-09-06T16:54:18.533Z,41.50
2022-09-06T16:56:46.185Z,41.50
2022-09-06T16:59:17.435Z,41.50
2022-09-06T17:01:45.587Z,41.80
2022-09-06T17:04:13.865Z,41.70
2022-09-06T17:06:45.455Z,41.80
2022-09-06T17:09:15.819Z,41.80
2022-09-06T17:11:43.329Z,41.80
2022-09-06T17:14:10.904Z,41.80
2022-09-06T17:16:57.048Z,41.80
2022-09-06T17:19:24.829Z,41.80
2022-09-06T17:21:52.662Z,42.50
2022-09-06T17:24:20.512Z,43.10
2022-09-06T17:26:48.496Z,42.60
2022-09-06T17:29:16.240Z,42.80
2022-09-06T17:31:44.035Z,42.90
2022-09-06T17:34:11.821Z,43.10
2022-09-06T17:36:39.729Z,43.70
2022-09-06T17:39:20.841Z,43.80
2022-09-06T17:41:53.607Z,44.10
2022-09-06T17:44:25.355Z,44.10
2022-09-06T17:47:11.926Z,44.80
2022-09-06T17:49:40.578Z,45.20
2022-09-06T17:52:08.122Z,45.00
2022-09-06T17:54:35.800Z,45.40
2022-09-06T17:57:03.821Z,46.10
2022-09-06T17:59:35.020Z,46.40
2022-09-06T18:02:04.488Z,47.10
2022-09-06T18:04:32.415Z,47.30
2022-09-06T18:07:00.294Z,48.00
2022-09-06T18:09:28.297Z,47.80
2022-09-06T18:11:55.933Z,48.20
2022-09-06T18:14:23.730Z,48.70
2022-09-06T18:16:52.376Z,49.10
2022-09-06T18:19:21.081Z,49.40
2022-09-06T18:21:48.956Z,49.40
2022-09-06T18:24:16.663Z,49.70
2022-09-06T18:26:44.858Z,49.90
2022-09-06T18:29:14.757Z,49.90
2022-09-06T18:31:43.470Z,50.20
2022-09-06T18:34:12.340Z,50.50
2022-09-06T18:36:40.440Z,50.40
2022-09-06T18:39:08.108Z,50.50
2022-09-06T18:41:54.380Z,51.00
2022-09-06T18:44:22.320Z,51.20
2022-09-06T18:46:50.286Z,51.40
2022-09-06T18:49:18.420Z,51.50
2022-09-06T18:51:45.908Z,51.60
2022-09-06T18:54:14.638Z,51.70
2022-09-06T18:56:44.692Z,52.00
2022-09-06T18:59:13.741Z,52.70
2022-09-06T19:01:45.184Z,52.60
2022-09-06T19:04:13.035Z,53.20
2022-09-06T19:06:43.136Z,53.50
2022-09-06T19:09:14.115Z,53.70
2022-09-06T19:11:45.478Z,54.40
2022-09-06T19:14:13.740Z,54.20
2022-09-06T19:16:42.117Z,54.30
2022-09-06T19:19:11.769Z,54.70
2022-09-06T19:21:42.230Z,54.80
2022-09-06T19:24:11.870Z,55.40
2022-09-06T19:26:42.667Z,55.60
2022-09-06T19:29:15.709Z,55.80
2022-09-06T19:31:44.722Z,56.20
2022-09-06T19:34:13.629Z,55.60
2022-09-06T19:36:41.834Z,55.90
2022-09-06T19:39:13.131Z,56.00
2022-09-06T19:41:46.502Z,56.00
2022-09-06T19:44:16.373Z,56.00
2022-09-06T19:46:46.588Z,55.90
2022-09-06T19:49:16.755Z,56.10
2022-09-06T19:51:46.499Z,56.50
2022-09-06T19:54:15.671Z,56.40
2022-09-06T19:56:44.177Z,56.60
2022-09-06T19:59:12.871Z,56.80
2022-09-06T20:01:42.471Z,56.90
2022-09-06T20:04:11.673Z,57.20
2022-09-06T20:06:39.455Z,57.20
2022-09-06T20:09:09.353Z,56.70
2022-09-06T20:11:39.105Z,56.80
2022-09-06T20:14:06.782Z,56.90
2022-09-06T20:16:37.097Z,57.00
2022-09-06T20:19:08.267Z,56.80
2022-09-06T20:21:36.014Z,56.70
2022-09-06T20:24:04.007Z,56.70
2022-09-06T20:26:31.608Z,56.70
2022-09-06T20:29:03.405Z,56.70
2022-09-06T20:31:32.409Z,56.90
2022-09-06T20:34:01.900Z,57.00
2022-09-06T20:36:30.052Z,56.90
2022-09-06T20:38:57.774Z,56.90
2022-09-06T20:41:26.419Z,56.80
2022-09-06T20:43:58.312Z,56.80
2022-09-06T20:46:28.493Z,57.00
2022-09-06T20:48:57.965Z,56.80
2022-09-06T20:51:26.120Z,56.80
2022-09-06T20:53:56.308Z,56.80
2022-09-06T20:56:33.601Z,56.90
2022-09-06T20:59:03.307Z,57.10
2022-09-06T21:01:34.594Z,57.20
2022-09-06T21:04:04.632Z,57.30
2022-09-06T21:06:36.634Z,57.40
2022-09-06T21:09:06.496Z,57.60
2022-09-06T21:11:34.695Z,57.80
2022-09-06T21:14:03.679Z,57.80
2022-09-06T21:16:31.875Z,57.70
2022-09-06T21:19:05.360Z,57.70
2022-09-06T21:21:34.765Z,57.70
2022-09-06T21:24:03.854Z,57.90
2022-09-06T21:26:31.829Z,58.00
2022-09-06T21:28:59.502Z,58.20
2022-09-06T21:31:30.157Z,58.10
2022-09-06T21:34:01.327Z,58.30
2022-09-06T21:36:37.908Z,58.30
2022-09-06T21:39:09.674Z,58.80
2022-09-06T21:41:39.173Z,58.70
2022-09-06T21:44:07.906Z,58.70
2022-09-06T21:46:37.462Z,58.70
2022-09-06T21:49:08.184Z,58.80
2022-09-06T21:51:36.631Z,59.10
2022-09-06T21:54:06.029Z,59.10
2022-09-06T21:56:35.954Z,59.30
2022-09-06T21:59:04.686Z,59.30
2022-09-06T22:01:34.823Z,59.40
2022-09-06T22:04:03.946Z,59.70
2022-09-06T22:06:33.336Z,59.90
2022-09-06T22:09:04.160Z,60.00
2022-09-06T22:11:34.146Z,60.10
2022-09-06T22:14:04.156Z,60.10
2022-09-06T22:16:33.889Z,60.20
2022-09-06T22:19:04.300Z,60.30
2022-09-06T22:21:33.185Z,60.50
2022-09-06T22:24:06.005Z,60.60
2022-09-06T22:26:35.375Z,60.60
2022-09-06T22:29:06.496Z,60.80
2022-09-06T22:31:35.636Z,60.80
2022-09-06T22:34:04.134Z,60.80
2022-09-06T22:36:32.314Z,60.80
2022-09-06T22:39:00.076Z,61.10
2022-09-06T22:41:30.379Z,61.10
2022-09-06T22:44:00.296Z,61.10
2022-09-06T22:46:28.521Z,61.20
2022-09-06T22:48:56.364Z,61.00
2022-09-06T22:51:24.394Z,61.10
2022-09-06T22:53:51.963Z,61.20
2022-09-06T22:56:19.814Z,61.10
2022-09-06T22:58:47.656Z,61.10
2022-09-06T23:01:16.485Z,61.00
2022-09-06T23:03:44.561Z,61.10
2022-09-06T23:06:12.216Z,61.00
2022-09-06T23:08:40.960Z,61.20
2022-09-06T23:11:11.738Z,61.30
2022-09-06T23:13:43.679Z,61.20
2022-09-06T23:16:14.620Z,61.40
2022-09-06T23:18:42.909Z,61.50
2022-09-06T23:21:13.803Z,61.40
2022-09-06T23:23:42.347Z,61.70
2022-09-06T23:26:15.676Z,62.00
2022-09-06T23:28:44.188Z,62.20
2022-09-06T23:31:14.492Z,62.40
2022-09-06T23:33:42.300Z,62.50
2022-09-06T23:36:14.484Z,62.70
2022-09-06T23:38:42.992Z,62.70
2022-09-06T23:41:10.848Z,62.70
2022-09-06T23:43:39.739Z,62.80
2022-09-06T23:46:10.742Z,62.80
2022-09-06T23:48:38.588Z,63.00
2022-09-06T23:51:06.064Z,62.80
2022-09-06T23:53:33.847Z,62.90
2022-09-06T23:56:01.483Z,63.10
2022-09-06T23:58:29.198Z,63.10
